Latest Coastal Weather Observations for Cerberus

IDV60701

Issued at 6:35 pm EST Thursday 2 October 2014 (issued every 10 minutes, with the page automatically refreshed every 10 minutes)

About coastal observations | Map of coastal stations | Coastal observations for VIC | Marine services | Other Formats
Station Details ID: 086361 Name: CERBERUS Lat: -38.36 Lon: 145.18 Height: 12.69 m
Data from the previous 72 hours. | See also: Recent months at Cerberus
Date/Time
EST
Temp

°C
Wind Pressure Rain
since 9am
mm
Weather Cloud Vis
km
Sea
Height
m
Swell
Dir
 
Speed
knots
Gust
knots
hPa Trend Height
m
Period
s
Dir
02/06:30pm 12.4 SW 7 11 1023.3 - 0.0 - - - - - - -
02/06:00pm 12.7 SW 10 15 1023.1 - 0.0 - - - - - - -
02/05:30pm 13.3 SW 11 16 1023.1 - 0.0 - - - - - - -
02/05:00pm 13.8 SW 12 17 1022.7 - 0.0 - - - - - - -
02/04:30pm 14.5 SW 10 17 1022.7 - 0.0 - - - - - - -
02/04:00pm 15.0 SW 11 19 1022.6 - 0.0 - - - - - - -
02/03:30pm 14.9 SW 11 18 1022.6 - 0.0 - - - - - - -
02/03:00pm 14.8 SW 11 17 1022.7 - 0.0 - - - - - - -
02/02:30pm 15.0 SW 11 18 1022.6 - 0.0 - - - - - - -
02/02:00pm 15.3 WSW 13 18 1022.8 - 0.0 - - - - - - -
02/01:30pm 15.2 WSW 10 16 1023.0 - 0.0 - - - - - - -
02/01:00pm 15.3 W 12 17 1023.1 - 0.0 - - - - - - -
02/12:30pm 14.6 WSW 12 21 1023.3 - 0.0 - - - - - - -
02/12:00pm 14.9 W 11 18 1023.4 - 0.0 - - - - - - -
02/11:30am 13.7 W 8 13 1023.7 - 0.0 - - - - - - -
02/11:00am 13.5 W 7 11 1023.6 - 0.0 - - - - - - -
02/10:30am 13.7 WNW 8 15 1023.5 - 0.0 - - - - - - -
02/10:00am 13.4 WNW 11 16 1023.4 - 0.0 - - - - - - -
02/09:30am 12.9 WNW 10 17 1023.4 - 0.0 - - - - - - -
02/09:00am 12.6 WNW 7 13 1023.5 - 0.4 - - - - - - -
02/08:30am 11.9 WNW 12 18 1023.5 - 0.4 - - - - - - -
02/08:00am 12.2 WNW 9 13 1023.1 - 0.4 - - - - - - -
02/07:30am 11.7 WNW 11 18 1022.7 - 0.4 - - - - - - -
02/07:00am 11.4 WNW 10 16 1022.7 - 0.4 - - - - - - -
02/06:30am 11.1 NW 10 15 1022.6 - 0.4 - - - - - - -
02/06:00am 10.9 WNW 11 16 1022.3 - 0.4 - - - - - - -
02/05:30am 10.8 NW 9 15 1022.4 - 0.4 - - - - - - -
02/05:00am 10.9 NW 8 15 1022.3 - 0.4 - - - - - - -
02/04:30am 11.0 WNW 9 16 1022.4 - 0.4 - - - - - - -
02/04:00am 11.1 WNW 10 16 1022.3 - 0.4 - - - - - - -
02/03:30am 11.3 WNW 10 15 1022.4 - 0.4 - - - - - - -
02/03:00am 11.2 WNW 9 15 1022.8 - 0.4 - - - - - - -
02/02:30am 11.2 WNW 9 14 1023.0 - 0.4 - - - - - - -
02/02:00am 11.0 WNW 9 15 1023.2 - 0.4 - - - - - - -
02/01:30am 10.9 WNW 8 12 1023.6 - 0.4 - - - - - - -
02/01:00am 10.6 WNW 7 11 1023.9 - 0.4 - - - - - - -
02/12:30am 10.3 NW 6 10 1024.0 - 0.4 - - - - - - -
02/12:00am 10.7 NW 5 8 1024.2 - 0.4 - - - - - - -
 
Date/Time
EST
Temp

°C
Wind Pressure Rain
since 9am
mm
Weather Cloud Vis
km
Sea
Height
m
Swell
Dir
 
Speed
knots
Gust
knots
hPa Trend Height
m
Period
s
Dir
01/11:30pm 10.9 WNW 6 8 1024.3 - 0.4 - - - - - - -
01/11:00pm 9.7 NW 4 6 1024.4 - 0.4 - - - - - - -
01/10:30pm 10.9 WNW 4 6 1024.6 - 0.4 - - - - - - -
01/10:00pm 11.2 W 5 8 1024.6 - 0.4 - - - - - - -
01/09:30pm 11.4 W 5 7 1024.7 - 0.4 - - - - - - -
01/09:00pm 11.3 WNW 4 5 1024.7 - 0.4 - - - - - - -
01/08:30pm 10.5 WNW 3 4 1024.7 - 0.4 - - - - - - -
01/08:00pm 9.9 W 3 5 1024.7 - 0.4 - - - - - - -
01/07:30pm 10.2 W 4 6 1024.3 - 0.4 - - - - - - -
01/07:00pm 10.4 W 4 6 1024.1 - 0.4 - - - - - - -
01/06:30pm 10.9 WSW 6 9 1023.8 - 0.4 - - - - - - -
01/06:00pm 11.7 WSW 9 14 1023.8 - 0.4 - - - - - - -
01/05:30pm 12.5 WSW 11 16 1023.6 - 0.4 - - - - - - -
01/05:00pm 12.6 SW 12 19 1023.8 - 0.4 - - - - - - -
01/04:30pm 13.4 SW 10 16 1023.5 - 0.4 - - - - - - -
01/04:00pm 13.7 WSW 11 17 1023.4 - 0.4 - - - - - - -
01/03:30pm 13.8 WSW 11 20 1023.6 - 0.4 - - - - - - -
01/03:00pm 13.3 WSW 11 16 1023.5 - 0.4 - - - - - - -
01/02:30pm 13.2 WSW 13 20 1023.3 - 0.4 - - - - - - -
01/02:00pm 13.5 SW 13 20 1023.3 - 0.4 - - - - - - -
01/01:30pm 14.6 SW 9 14 1023.0 - 0.4 - - - - - - -
01/01:00pm 13.8 WSW 13 20 1023.4 - 0.4 - - - - - - -
01/12:30pm 12.7 SW 13 19 1023.7 - 0.4 - - - - - - -
01/12:00pm 13.2 SW 11 17 1023.3 - 0.4 - - - - - - -
01/11:30am 14.0 SW 10 16 1023.2 - 0.4 - - - - - - -
01/11:00am 13.9 WSW 9 14 1023.2 - 0.4 - - - - - - -
01/10:30am 13.4 SW 11 18 1023.1 - 0.4 - - - - - - -
01/10:00am 11.5 WSW 6 9 1023.0 - 0.4 - - - - - - -
01/09:30am 12.9 SW 12 18 1022.6 - 0.0 - - - - - - -
01/09:00am 12.9 SW 13 19 1022.2 - 7.2 - - - - - - -
01/08:30am 11.4 W 7 12 1021.7 - 7.2 - - - - - - -
01/08:00am 11.6 WSW 8 13 1021.0 - 7.2 - - - - - - -
01/07:30am 10.7 W 8 12 1020.4 - 7.2 - - - - - - -
01/07:00am 9.6 WSW 4 8 1020.0 - 7.2 - - - - - - -
01/06:30am 9.4 W 7 13 1019.4 - 7.2 - - - - - - -
01/06:00am 9.3 W 8 14 1018.9 - 7.2 - - - - - - -
01/05:30am 9.3 WSW 9 16 1018.3 - 7.2 - - - - - - -
01/05:00am 8.9 WSW 10 17 1017.9 - 7.2 - - - - - - -
01/04:30am 8.9 SSW 15 22 1017.5 - 7.2 - - - - - - -
01/04:24am 9.3 SSW 17 22 1017.5 - 7.2 - - - - - - -
01/04:00am 8.0 W 6 10 1017.1 - 7.2 - - - - - - -
01/03:30am 8.2 WNW 6 8 1016.7 - 7.2 - - - - - - -
01/03:07am 7.8 WSW 16 27 1016.3 - 7.2 - - - - - - -
01/03:00am 8.4 WNW 8 11 1016.3 - 7.0 - - - - - - -
01/02:30am 8.5 W 9 17 1015.7 - 7.0 - - - - - - -
01/02:00am 8.2 W 8 13 1015.5 - 7.0 - - - - - - -
01/01:30am 7.6 W 7 11 1015.2 - 7.0 - - - - - - -
01/01:00am 7.1 WNW 6 11 1015.1 - 7.0 - - - - - - -
01/12:30am 6.3 WNW 5 8 1014.8 - 7.0 - - - - - - -
01/12:00am 6.2 W 11 17 1014.6 - 7.0 Rain - - - - - -
 
Date/Time
EST
Temp

°C
Wind Pressure Rain
since 9am
mm
Weather Cloud Vis
km
Sea
Height
m
Swell
Dir
 
Speed
knots
Gust
knots
hPa Trend Height
m
Period
s
Dir
30/11:30pm 7.2 W 9 18 1013.9 - 4.6 - - - - - - -
30/11:00pm 7.2 W 15 23 1013.3 - 4.0 - - - - - - -
30/10:40pm 7.3 WSW 16 29 1013.6 - 3.8 - - - - - - -
30/10:30pm 8.1 W 10 16 1013.4 - 3.4 - - - - - - -
30/10:00pm 8.5 W 13 21 1012.9 - 3.2 - - - - - - -
30/09:52pm 8.8 W 15 27 1012.8 - 3.2 - - - - - - -
30/09:30pm 9.7 W 12 19 1012.1 - 2.8 - - - - - - -
30/09:00pm 8.6 W 6 12 1011.8 - 2.8 Recent precip. - - - - - -
30/08:30pm 8.4 W 7 10 1011.6 - 2.8 - - - - - - -
30/08:00pm 9.1 WSW 17 29 1011.6 - 2.6 - - - - - - -
30/07:51pm 9.9 W 15 31 1011.3 - 2.6 - - - - - - -
30/07:30pm 10.4 W 13 19 1010.6 - 2.6 - - - - - - -
30/07:00pm 10.4 W 11 17 1009.8 - 2.4 - - - - - - -
30/06:30pm 10.6 W 10 17 1009.1 - 2.4 - - - - - - -
30/06:00pm 11.1 W 11 20 1008.8 - 2.4 - - - - - - -
30/05:30pm 11.1 W 13 22 1008.3 - 2.4 - - - - - - -
30/05:15pm 11.2 W 15 25 1007.9 - 2.4 - - - - - - -
30/05:00pm 10.8 W 14 21 1007.3 - 2.4 - - - - - - -
30/04:38pm 10.2 W 15 26 1007.0 - 2.4 - - - - - - -
30/04:30pm 9.7 W 16 22 1006.9 - 2.4 - - - - - - -
30/04:00pm 9.9 WSW 21 32 1006.0 - 1.8 - - - - - - -
30/03:30pm 12.1 W 23 35 1004.6 - 1.0 - - - - - - -
30/03:00pm 14.1 W 22 37 1003.4 - 0.4 Rain - - - - - -
30/02:44pm 16.6 W 25 42 1002.4 - 0.0 - - - - - - -
30/02:40pm 19.7 WNW 16 42 1001.6 - 0.0 - - - - - - -
30/02:30pm 20.0 NW 15 21 1000.9 - 0.0 - - - - - - -
30/02:00pm 19.9 NNW 11 20 1001.3 - 0.0 - - - - - - -
30/01:30pm 20.4 NNW 13 23 1001.8 - 0.0 - - - - - - -
30/01:24pm 20.2 NNW 15 26 1001.9 - 0.0 - - - - - - -
30/01:00pm 19.6 NNW 9 17 1002.8 - 0.0 - - - - - - -
30/12:30pm 19.4 NW 14 22 1003.5 - 0.0 - - - - - - -
30/12:07pm 20.0 NNW 17 28 1003.5 - 0.0 - - - - - - -
30/12:00pm 20.3 NNW 17 27 1003.5 - 0.0 - - - - - - -
30/11:39am 19.8 NNW 15 29 1003.8 - 0.0 - - - - - - -
30/11:30am 20.6 NNW 14 26 1003.9 - 0.0 - - - - - - -
30/11:13am 19.6 NNW 15 28 1004.3 - 0.0 - - - - - - -
30/11:00am 20.0 NNW 13 22 1004.5 - 0.0 - - - - - - -
30/10:30am 19.8 N 12 20 1005.3 - 0.0 - - - - - - -
30/10:00am 19.3 NNW 12 21 1006.0 - 0.0 - - - - - - -
30/09:30am 17.6 N 9 18 1006.9 - 0.0 - - - - - - -
30/09:00am 17.8 NNW 9 17 1007.7 - 0.0 - - - - - - -
30/08:30am 16.4 NNW 9 15 1008.2 - 0.0 - - - - - - -
30/08:00am 15.8 N 7 14 1008.4 - 0.0 - - - - - - -
30/07:30am 14.8 NNW 6 9 1009.1 - 0.0 - - - - - - -
30/07:00am 12.4 NNW 3 5 1009.2 - 0.0 - - - - - - -
30/06:30am 9.7 WNW 2 4 1009.4 - 0.0 - - - - - - -
30/06:00am 9.7 CALM 0 1 1008.8 - 0.0 - - - - - - -
30/05:30am 10.0 CALM 0 0 1008.6 - 0.0 - - - - - - -
30/05:00am 9.1 N 1 2 1008.4 - 0.0 - - - - - - -
30/04:30am 10.1 N 2 4 1008.2 - 0.0 - - - - - - -
30/04:00am 9.9 NW 3 4 1008.6 - 0.0 - - - - - - -
30/03:30am 10.3 W 2 3 1008.8 - 0.0 - - - - - - -
30/03:00am 10.3 W 3 3 1009.0 - 0.0 - - - - - - -
30/02:30am 11.4 WNW 3 4 1009.3 - 0.0 - - - - - - -
30/02:00am 12.0 WSW 2 4 1009.8 - 0.0 - - - - - - -
30/01:30am 12.9 SW 3 5 1010.1 - 0.0 - - - - - - -
30/01:00am 13.1 W 1 3 1010.5 - 0.0 - - - - - - -
30/12:30am 13.4 W 2 3 1011.1 - 0.0 - - - - - - -
30/12:00am 13.5 SSW 6 10 1011.3 - 0.0 - - - - - - -
 
Date/Time
EST
Temp

°C
Wind Pressure Rain
since 9am
mm
Weather Cloud Vis
km
Sea
Height
m
Swell
Dir
 
Speed
knots
Gust
knots
hPa Trend Height
m
Period
s
Dir
29/11:30pm 14.9 WSW 5 10 1011.3 - 0.0 - - - - - - -
29/11:00pm 16.8 N 7 13 1011.1 - 0.0 - - - - - - -
29/10:30pm 16.5 N 6 9 1010.9 - 0.0 - - - - - - -
29/10:00pm 15.6 N 4 8 1011.2 - 0.0 - - - - - - -
29/09:30pm 14.4 NNE 3 5 1011.3 - 0.0 - - - - - - -
29/09:00pm 14.4 N 3 4 1011.2 - 0.0 - - - - - - -
29/08:30pm 14.6 NNW 2 3 1011.2 - 0.0 - - - - - - -
29/08:00pm 14.9 NNW 3 5 1011.2 - 0.0 - - - - - - -
29/07:30pm 16.4 N 3 4 1010.9 - 0.0 - - - - - - -
29/07:00pm 17.2 N 3 5 1010.8 - 0.0 - - - - - - -

Other Formats:

Comma delimited format used in spreadsheet applications
http://www.bom.gov.au/fwo/IDV60701/IDV60701.94898.axf

JavaScript Object Notation format (JSON) in row-major order
http://www.bom.gov.au/fwo/IDV60701/IDV60701.94898.json